Weather at El Dorado International Airport

Public forecast

Using degrees Celsius for public forecast. Weather courtesy of forecast.io.

Current aviation weather report (METAR) for El Dorado International Airport

Retrieved 2021/04/15 08:00 UTC (41 seconds ago):

SKBO 150800Z 04005KT 9999 FEW017 SCT200 10/09 Q1026 NOSIG RMK A3030

Aviation forecast (TAF) for El Dorado International Airport

Retrieved 2021/04/15 06:00 UTC (2 hours ago):

TAF SKBO 150430Z 1506/1606 05006KT 9999 FEW015 SCT080 PROB40 TEMPO 1510/1512 DZ SCT010 BKN070 BECMG 1515/1517 16010KT SCT020 TX20/1518Z TN09/1510Z